Time;durP1;ratioP1;P1;durP2;ratioP2;P2;SDS_P1;SDS_P2;PMS_P1;PMS_P2;Temp;Humidity;BMP_temperature;BMP_pressure;BME280_temperature;BME280_humidity;BME280_pressure;Samples;Min_cycle;Max_cycle;Signal;HPM_P1;HPM_P2
2022/06/22 00:01:36;;;;;;;5.00;2.40;;;;;;99986.19;;;;107675;1290;25342;-37
2022/06/22 00:04:03;;;;;;;3.50;1.80;;;;;;99984.33;;;;107529;1291;25481;-39
2022/06/22 00:06:31;;;;;;;4.20;1.50;;;;;;99986.39;;;;107663;1290;25245;-39
2022/06/22 00:08:58;;;;;;;4.30;2.30;;;;;;99986.77;;;;107665;1290;25271;-39
2022/06/22 00:11:27;;;;;;;4.00;1.80;;;;;;99989.60;;;;107680;1295;22611;-38
2022/06/22 00:13:54;;;;;;;3.40;1.70;;;;;;99990.54;;;;107659;1302;24209;-39
2022/06/22 00:16:22;;;;;;;3.30;1.80;;;;;;99990.36;;;;107673;1290;24119;-39
2022/06/22 00:18:50;;;;;;;5.80;1.90;;;;;;99991.25;;;;107671;1290;22481;-39
2022/06/22 00:21:17;;;;;;;3.60;1.80;;;;;;99995.20;;;;107638;1290;24110;-39
2022/06/22 00:23:45;;;;;;;4.10;1.80;;;;;;99997.93;;;;107696;1290;24240;-39
2022/06/22 00:26:12;;;;;;;3.70;1.90;;;;;;100002.58;;;;107667;1290;24197;-39
2022/06/22 00:28:40;;;;;;;3.60;1.70;;;;;;100003.77;;;;107669;1290;25375;-39
2022/06/22 00:31:07;;;;;;;2.90;1.40;;;;;;100001.96;;;;107674;1291;22490;-38
2022/06/22 00:33:35;;;;;;;4.20;1.80;;;;;;99998.72;;;;107671;1290;24090;-39
2022/06/22 00:36:02;;;;;;;3.90;1.70;;;;;;99999.05;;;;107678;1295;22509;-39
2022/06/22 00:38:30;;;;;;;4.40;1.80;;;;;;100002.69;;;;107690;1290;22508;-39
2022/06/22 00:40:57;;;;;;;3.80;1.80;;;;;;100005.83;;;;107659;1292;23757;-39
2022/06/22 00:43:25;;;;;;;3.40;1.80;;;;;;100017.98;;;;107666;1290;24125;-39
2022/06/22 00:45:53;;;;;;;3.30;1.60;;;;;;100029.98;;;;107646;1290;22494;-39
2022/06/22 00:48:21;;;;;;;3.70;1.70;;;;;;100027.95;;;;107667;1290;25341;-39
2022/06/22 00:50:48;;;;;;;4.30;2.00;;;;;;100022.17;;;;107674;1290;25357;-39
2022/06/22 00:53:16;;;;;;;3.20;1.70;;;;;;100020.98;;;;107677;1290;24246;-39
2022/06/22 00:55:43;;;;;;;5.80;2.10;;;;;;100021.16;;;;107663;1290;22493;-39
2022/06/22 00:58:11;;;;;;;3.30;1.80;;;;;;100021.93;;;;107665;1290;23961;-39
2022/06/22 01:00:39;;;;;;;3.60;1.90;;;;;;100022.60;;;;107682;1290;23931;-38
2022/06/22 01:03:06;;;;;;;3.30;1.70;;;;;;100025.38;;;;107675;1302;25403;-39
2022/06/22 01:05:34;;;;;;;3.40;1.50;;;;;;100022.73;;;;107670;1300;24197;-39
2022/06/22 01:08:01;;;;;;;2.70;1.60;;;;;;100023.52;;;;107656;1290;24232;-38
2022/06/22 01:10:29;;;;;;;3.40;1.60;;;;;;100022.25;;;;107695;1290;22496;-38
2022/06/22 01:12:56;;;;;;;2.80;1.60;;;;;;100019.91;;;;107665;1290;22488;-38
2022/06/22 01:15:24;;;;;;;3.40;1.50;;;;;;100021.23;;;;107679;1290;22483;-39
2022/06/22 01:17:51;;;;;;;2.80;1.40;;;;;;100017.21;;;;107679;1290;22468;-39
2022/06/22 01:20:19;;;;;;;4.10;1.80;;;;;;100011.98;;;;107646;1290;24068;-39
2022/06/22 01:22:46;;;;;;;3.50;1.50;;;;;;100011.77;;;;107655;1290;24042;-39
2022/06/22 01:25:14;;;;;;;3.80;1.80;;;;;;100010.52;;;;107671;1294;22488;-38
2022/06/22 01:27:42;;;;;;;3.50;1.60;;;;;;100012.48;;;;107658;1299;22509;-38
2022/06/22 01:30:09;;;;;;;4.40;1.90;;;;;;100014.25;;;;107664;1295;22499;-39
2022/06/22 01:32:37;;;;;;;3.60;1.70;;;;;;100011.98;;;;107694;1290;22798;-38
2022/06/22 01:35:04;;;;;;;3.50;1.70;;;;;;100010.14;;;;107676;1295;22498;-38
2022/06/22 01:37:32;;;;;;;4.00;1.80;;;;;;100007.41;;;;107649;1290;22957;-37
2022/06/22 01:40:00;;;;;;;3.70;1.80;;;;;;100008.67;;;;107661;1290;24193;-38
2022/06/22 01:42:27;;;;;;;3.50;2.00;;;;;;100009.52;;;;107645;1290;24089;-39
2022/06/22 01:44:55;;;;;;;2.60;1.60;;;;;;100007.31;;;;107677;1290;22533;-38
2022/06/22 01:47:22;;;;;;;4.60;2.10;;;;;;100005.42;;;;107700;1290;22482;-38
2022/06/22 01:49:50;;;;;;;3.70;1.80;;;;;;100005.62;;;;107674;1290;26551;-38
2022/06/22 01:52:17;;;;;;;3.70;1.80;;;;;;100011.98;;;;107671;1290;22484;-39
2022/06/22 01:54:47;;;;;;;2.90;1.80;;;;;;100016.86;;;;107664;1290;22544;-38
2022/06/22 01:57:15;;;;;;;3.50;1.80;;;;;;100027.73;;;;107677;1290;24067;-38
2022/06/22 01:59:42;;;;;;;3.80;1.80;;;;;;100020.52;;;;107636;1290;22488;-36
2022/06/22 02:02:10;;;;;;;4.10;1.90;;;;;;100020.92;;;;107668;1290;22498;-37
2022/06/22 02:04:38;;;;;;;3.30;1.60;;;;;;100016.36;;;;107660;1290;24236;-38
2022/06/22 02:09:51;;;;;;;4.20;2.20;;;;;;100016.11;;;;107647;1290;22819;-39
2022/06/22 02:12:26;;;;;;;3.60;2.10;;;;;;100010.00;;;;107648;1292;22480;-40
2022/06/22 02:14:54;;;;;;;3.90;2.10;;;;;;100018.93;;;;107672;1300;24320;-39
2022/06/22 02:17:21;;;;;;;3.90;2.10;;;;;;100025.69;;;;107653;1290;23673;-38
2022/06/22 02:19:49;;;;;;;4.30;2.20;;;;;;100028.36;;;;107646;1290;23160;-39
2022/06/22 02:22:16;;;;;;;5.30;2.20;;;;;;100033.05;;;;107642;1290;22567;-39
2022/06/22 02:24:44;;;;;;;3.70;1.80;;;;;;100030.04;;;;107647;1290;22471;-39
2022/06/22 02:27:12;;;;;;;4.30;2.00;;;;;;100032.45;;;;107658;1292;22471;-39
2022/06/22 02:29:40;;;;;;;4.40;2.40;;;;;;100038.20;;;;107651;1290;24329;-40
2022/06/22 02:32:07;;;;;;;4.00;2.30;;;;;;100040.10;;;;107652;1295;24216;-39
2022/06/22 02:34:35;;;;;;;4.90;2.10;;;;;;100039.02;;;;107650;1290;22504;-40
2022/06/22 02:37:02;;;;;;;3.80;2.00;;;;;;100047.80;;;;107671;1290;22517;-40
2022/06/22 02:39:30;;;;;;;4.20;2.30;;;;;;100042.64;;;;107656;1290;24151;-39
2022/06/22 02:44:44;;;;;;;5.00;2.30;;;;;;100047.24;;;;107668;1290;22493;-37
2022/06/22 02:47:12;;;;;;;3.50;1.90;;;;;;100052.24;;;;107674;1295;22481;-37
2022/06/22 02:49:39;;;;;;;3.90;2.10;;;;;;100050.96;;;;107678;1290;22529;-39
2022/06/22 02:52:07;;;;;;;4.20;2.00;;;;;;100056.95;;;;107641;1290;24165;-38
2022/06/22 02:54:34;;;;;;;3.80;2.20;;;;;;100054.95;;;;107673;1294;24206;-39
2022/06/22 02:57:02;;;;;;;5.40;2.30;;;;;;100058.08;;;;107672;1283;22492;-38
2022/06/22 02:59:30;;;;;;;4.50;1.90;;;;;;100063.27;;;;107666;1290;25813;-38
2022/06/22 03:01:57;;;;;;;3.80;2.10;;;;;;100054.17;;;;107672;1290;25211;-38
2022/06/22 03:04:25;;;;;;;4.10;2.00;;;;;;100060.38;;;;107673;1299;22700;-37
2022/06/22 03:06:53;;;;;;;4.00;2.00;;;;;;100066.45;;;;107648;1290;22845;-38
2022/06/22 03:09:20;;;;;;;3.40;2.00;;;;;;100061.91;;;;107545;1294;23193;-38
2022/06/22 03:11:48;;;;;;;3.40;1.80;;;;;;100066.14;;;;107675;1290;22488;-38
2022/06/22 03:14:16;;;;;;;3.70;1.80;;;;;;100065.82;;;;107678;1289;24119;-38
2022/06/22 03:16:44;;;;;;;3.60;1.80;;;;;;100060.86;;;;107699;1289;24261;-38
2022/06/22 03:19:12;;;;;;;3.60;2.00;;;;;;100055.73;;;;107687;1299;24399;-38
2022/06/22 03:21:39;;;;;;;3.60;2.00;;;;;;100047.24;;;;107692;1289;24061;-38
2022/06/22 03:24:07;;;;;;;4.20;2.10;;;;;;100044.33;;;;107672;1289;22481;-37
2022/06/22 03:26:34;;;;;;;3.90;2.10;;;;;;100038.63;;;;107685;1290;25261;-37
2022/06/22 03:29:02;;;;;;;3.40;1.70;;;;;;100033.84;;;;107700;1289;23746;-37
2022/06/22 03:31:29;;;;;;;5.20;2.40;;;;;;100041.54;;;;107707;1289;24108;-36
2022/06/22 03:33:58;;;;;;;3.60;1.90;;;;;;100049.81;;;;107721;1289;24271;-36
2022/06/22 03:36:26;;;;;;;3.80;2.10;;;;;;100047.46;;;;107713;1289;22486;-36
2022/06/22 03:38:54;;;;;;;4.30;1.80;;;;;;100043.83;;;;107706;1289;25238;-36
2022/06/22 03:41:21;;;;;;;3.40;1.80;;;;;;100038.89;;;;107698;1299;24256;-38
2022/06/22 03:43:49;;;;;;;3.60;2.10;;;;;;100039.62;;;;107726;1289;25182;-39
2022/06/22 03:46:16;;;;;;;4.70;2.20;;;;;;100054.44;;;;107722;1289;22483;-38
2022/06/22 03:48:44;;;;;;;4.10;2.00;;;;;;100062.17;;;;107716;1295;22506;-38
2022/06/22 03:51:12;;;;;;;3.80;2.00;;;;;;100066.70;;;;107696;1295;22500;-38
2022/06/22 03:53:39;;;;;;;3.80;2.30;;;;;;100068.14;;;;107719;1289;22505;-38
2022/06/22 03:56:07;;;;;;;3.70;1.90;;;;;;100071.30;;;;107711;1300;25446;-38
2022/06/22 03:58:34;;;;;;;3.50;2.00;;;;;;100070.79;;;;107697;1287;24338;-39
2022/06/22 04:01:02;;;;;;;3.60;2.10;;;;;;100060.52;;;;107723;1289;25535;-38
2022/06/22 04:03:29;;;;;;;4.40;1.90;;;;;;100062.54;;;;107712;1289;24284;-39
2022/06/22 04:05:57;;;;;;;3.40;1.80;;;;;;100072.61;;;;107717;1289;22485;-39
2022/06/22 04:08:24;;;;;;;4.30;2.10;;;;;;100070.92;;;;107698;1301;22512;-38
2022/06/22 04:10:52;;;;;;;4.50;2.30;;;;;;100075.92;;;;107704;1289;22612;-38
2022/06/22 04:13:19;;;;;;;3.40;1.90;;;;;;100075.10;;;;107692;1289;24302;-40
2022/06/22 04:15:47;;;;;;;5.00;2.30;;;;;;100076.51;;;;107689;1289;24139;-38
2022/06/22 04:18:15;;;;;;;4.60;2.10;;;;;;100085.05;;;;107691;1289;24229;-38
2022/06/22 04:20:51;;;;;;;4.70;1.90;;;;;;100085.75;;;;107695;1298;22503;-38
2022/06/22 04:23:19;;;;;;;5.20;2.40;;;;;;100086.88;;;;107666;1300;22832;-38
2022/06/22 04:25:47;;;;;;;3.80;2.00;;;;;;100088.53;;;;107678;1289;25159;-38
2022/06/22 04:28:15;;;;;;;4.50;2.50;;;;;;100079.73;;;;107695;1289;24242;-38
2022/06/22 04:30:42;;;;;;;6.00;2.70;;;;;;100085.10;;;;107681;1295;22441;-38
2022/06/22 04:33:10;;;;;;;4.50;2.30;;;;;;100092.83;;;;107701;1289;22501;-38
2022/06/22 04:35:38;;;;;;;4.10;1.90;;;;;;100092.77;;;;107657;1289;24582;-38
2022/06/22 04:38:05;;;;;;;3.50;1.70;;;;;;100081.20;;;;107713;1288;24254;-38
2022/06/22 04:40:33;;;;;;;3.90;2.10;;;;;;100070.92;;;;107689;1289;24229;-38
2022/06/22 04:43:01;;;;;;;4.50;2.30;;;;;;100071.23;;;;107685;1289;22677;-38
2022/06/22 04:45:28;;;;;;;3.70;1.80;;;;;;100066.56;;;;107676;1298;24185;-38
2022/06/22 04:47:56;;;;;;;4.80;2.20;;;;;;100066.51;;;;107684;1295;22507;-38
2022/06/22 04:50:23;;;;;;;4.00;1.90;;;;;;100076.38;;;;107684;1289;25359;-38
2022/06/22 04:52:53;;;;;;;4.20;2.10;;;;;;100079.20;;;;107666;1289;24210;-38
2022/06/22 04:55:21;;;;;;;4.20;2.30;;;;;;100083.03;;;;107693;1289;22507;-38
2022/06/22 04:57:49;;;;;;;6.00;2.20;;;;;;100084.70;;;;107701;1288;24178;-37
2022/06/22 05:00:16;;;;;;;4.40;2.10;;;;;;100089.27;;;;107672;1292;22486;-37
2022/06/22 05:02:44;;;;;;;3.30;1.80;;;;;;100086.61;;;;107695;1289;24300;-38
2022/06/22 05:05:12;;;;;;;4.90;2.30;;;;;;100078.05;;;;107720;1295;24173;-38
2022/06/22 05:07:39;;;;;;;5.50;2.20;;;;;;100087.70;;;;107691;1288;22545;-38
2022/06/22 05:10:07;;;;;;;4.20;1.90;;;;;;100095.39;;;;107697;1299;22517;-38
2022/06/22 05:12:34;;;;;;;4.10;2.00;;;;;;100096.05;;;;107665;1290;22486;-38
2022/06/22 05:15:02;;;;;;;4.30;2.50;;;;;;100096.33;;;;107679;1289;23753;-38
2022/06/22 05:17:29;;;;;;;4.80;2.30;;;;;;100105.42;;;;107701;1289;22521;-37
2022/06/22 05:19:57;;;;;;;3.70;2.10;;;;;;100106.26;;;;107693;1289;24412;-38
2022/06/22 05:22:25;;;;;;;5.20;2.20;;;;;;100101.44;;;;107700;1289;23838;-37
2022/06/22 05:24:52;;;;;;;4.80;2.00;;;;;;100101.47;;;;107741;1295;25500;-37
2022/06/22 05:27:22;;;;;;;4.20;2.20;;;;;;100102.09;;;;107715;1289;25182;-39
2022/06/22 05:29:49;;;;;;;5.50;2.30;;;;;;100100.23;;;;107725;1294;22477;-38
2022/06/22 05:32:17;;;;;;;5.50;2.40;;;;;;100100.91;;;;107733;1289;24217;-38
2022/06/22 05:34:44;;;;;;;5.30;2.00;;;;;;100101.39;;;;107704;1289;24146;-38
2022/06/22 05:37:13;;;;;;;4.90;2.30;;;;;;100095.55;;;;107695;1290;24104;-38
2022/06/22 05:39:40;;;;;;;4.20;1.70;;;;;;100097.59;;;;107550;1289;222648;-38
2022/06/22 05:42:08;;;;;;;4.30;2.10;;;;;;100087.69;;;;107698;1289;24397;-38
2022/06/22 05:44:36;;;;;;;3.90;2.30;;;;;;100086.80;;;;107709;1300;22490;-37
2022/06/22 05:47:04;;;;;;;4.10;2.10;;;;;;100093.31;;;;107685;1301;24337;-38
2022/06/22 05:49:31;;;;;;;4.80;2.50;;;;;;100099.86;;;;107678;1289;24526;-40
2022/06/22 05:51:59;;;;;;;7.80;5.10;;;;;;100104.23;;;;107708;1297;22496;-39
2022/06/22 05:54:26;;;;;;;6.20;4.30;;;;;;100106.73;;;;107697;1295;22513;-39
2022/06/22 05:56:54;;;;;;;6.30;3.80;;;;;;100103.62;;;;107664;1289;24231;-38
2022/06/22 05:59:22;;;;;;;5.30;3.20;;;;;;100108.52;;;;107696;1289;24297;-39
2022/06/22 06:01:52;;;;;;;6.50;3.20;;;;;;100111.73;;;;107702;1289;22475;-39
2022/06/22 06:04:20;;;;;;;5.30;3.00;;;;;;100107.11;;;;107694;1288;24215;-39
2022/06/22 06:06:47;;;;;;;5.00;2.80;;;;;;100104.73;;;;107686;1295;22497;-39
2022/06/22 06:09:15;;;;;;;5.80;3.60;;;;;;100105.43;;;;107650;1290;25176;-37
2022/06/22 06:11:42;;;;;;;7.90;3.60;;;;;;100107.79;;;;107687;1299;22499;-39
2022/06/22 06:14:10;;;;;;;5.50;2.60;;;;;;100106.23;;;;107663;1289;24220;-38
2022/06/22 06:16:37;;;;;;;5.90;2.80;;;;;;100103.57;;;;107680;1294;22773;-38
2022/06/22 06:19:05;;;;;;;4.70;3.00;;;;;;100104.36;;;;107676;1293;22593;-38
2022/06/22 06:21:33;;;;;;;5.60;3.20;;;;;;100105.44;;;;107682;1289;24288;-39
2022/06/22 06:24:01;;;;;;;7.50;3.00;;;;;;100108.77;;;;107696;1289;24278;-39
2022/06/22 06:29:14;;;;;;;7.40;3.00;;;;;;100105.00;;;;107685;1289;22491;-38
2022/06/22 06:31:41;;;;;;;5.20;3.00;;;;;;100105.52;;;;107691;1289;22490;-37
2022/06/22 06:34:09;;;;;;;6.50;3.10;;;;;;100105.44;;;;107680;1289;25212;-39
2022/06/22 06:36:37;;;;;;;6.20;3.10;;;;;;100109.01;;;;107706;1291;24156;-38
2022/06/22 06:39:05;;;;;;;6.80;2.80;;;;;;100104.17;;;;107697;1289;22512;-38
2022/06/22 06:41:32;;;;;;;6.10;2.90;;;;;;100102.87;;;;107692;1289;22486;-39
2022/06/22 06:44:00;;;;;;;4.70;3.00;;;;;;100096.86;;;;107696;1289;24049;-39
2022/06/22 06:46:28;;;;;;;5.90;3.30;;;;;;100098.59;;;;107691;1295;22493;-40
2022/06/22 06:48:55;;;;;;;5.00;2.80;;;;;;100096.47;;;;107658;1290;24382;-38
2022/06/22 06:51:23;;;;;;;6.50;3.00;;;;;;100096.23;;;;107705;1289;25927;-39
2022/06/22 06:53:50;;;;;;;7.50;3.20;;;;;;100095.59;;;;107690;1289;22501;-39
2022/06/22 06:56:18;;;;;;;5.30;2.80;;;;;;100091.59;;;;107687;1289;24195;-39
2022/06/22 06:58:45;;;;;;;5.50;2.70;;;;;;100088.44;;;;107684;1289;25295;-39
2022/06/22 07:01:13;;;;;;;5.70;2.90;;;;;;100083.66;;;;107722;1298;22502;-40
2022/06/22 07:03:41;;;;;;;6.70;2.90;;;;;;100091.10;;;;107719;1289;22513;-39
2022/06/22 07:06:08;;;;;;;5.10;2.80;;;;;;100095.26;;;;107692;1295;22585;-40
2022/06/22 07:08:35;;;;;;;5.80;2.70;;;;;;100098.58;;;;107690;1287;22500;-40
2022/06/22 07:11:03;;;;;;;6.00;2.60;;;;;;100097.28;;;;107652;1289;24249;-39
2022/06/22 07:13:30;;;;;;;6.80;2.70;;;;;;100091.30;;;;107668;1289;25332;-39
2022/06/22 07:15:58;;;;;;;5.80;2.90;;;;;;100093.63;;;;107685;1289;25217;-40
2022/06/22 07:18:26;;;;;;;5.60;2.70;;;;;;100095.80;;;;107671;1289;25043;-40
2022/06/22 07:20:53;;;;;;;7.00;2.90;;;;;;100102.54;;;;107674;1289;24221;-39
2022/06/22 07:23:22;;;;;;;6.70;3.90;;;;;;100100.41;;;;107697;1295;22555;-39
2022/06/22 07:25:50;;;;;;;7.40;3.30;;;;;;100096.26;;;;107674;1294;23767;-39
2022/06/22 07:28:18;;;;;;;9.50;3.40;;;;;;100091.11;;;;107679;1289;24135;-39
2022/06/22 07:30:45;;;;;;;6.90;2.80;;;;;;100089.03;;;;107669;1289;24222;-39
2022/06/22 07:33:13;;;;;;;6.80;2.80;;;;;;100092.54;;;;107675;1289;25370;-39
2022/06/22 07:35:40;;;;;;;7.20;2.60;;;;;;100093.08;;;;107687;1300;24304;-39
2022/06/22 07:38:08;;;;;;;5.20;2.70;;;;;;100096.45;;;;107704;1291;22472;-38
2022/06/22 07:40:37;;;;;;;5.30;2.70;;;;;;100100.81;;;;107693;1293;22525;-40
2022/06/22 07:43:05;;;;;;;5.80;2.70;;;;;;100098.28;;;;107679;1289;22496;-40
2022/06/22 07:45:33;;;;;;;5.90;3.10;;;;;;100097.16;;;;107675;1289;24163;-39
2022/06/22 07:48:00;;;;;;;6.20;2.70;;;;;;100097.06;;;;107694;1289;22476;-39
2022/06/22 07:50:28;;;;;;;5.10;2.70;;;;;;100099.84;;;;107677;1293;22750;-39
2022/06/22 07:52:56;;;;;;;6.10;2.70;;;;;;100103.71;;;;107806;1286;22491;-40
2022/06/22 07:55:25;;;;;;;5.10;2.60;;;;;;100106.98;;;;107808;1286;23009;-39
2022/06/22 07:57:52;;;;;;;4.50;2.60;;;;;;100107.53;;;;107838;1286;25949;-39
2022/06/22 08:00:20;;;;;;;5.10;2.80;;;;;;100104.15;;;;107808;1297;23060;-39
2022/06/22 08:02:47;;;;;;;5.30;2.60;;;;;;100099.53;;;;107816;1286;22800;-40
2022/06/22 08:05:15;;;;;;;5.30;2.70;;;;;;100099.27;;;;107817;1286;22533;-39
2022/06/22 08:07:43;;;;;;;5.10;2.50;;;;;;100100.48;;;;107823;1286;22498;-39
2022/06/22 08:10:11;;;;;;;6.30;2.70;;;;;;100095.84;;;;107823;1286;24086;-39
2022/06/22 08:12:38;;;;;;;5.90;2.80;;;;;;100097.30;;;;107840;1286;22565;-39
2022/06/22 08:15:06;;;;;;;4.50;2.50;;;;;;100097.02;;;;107814;1297;24134;-39
2022/06/22 08:17:33;;;;;;;5.80;2.30;;;;;;100098.77;;;;107763;1287;23422;-39
2022/06/22 08:20:01;;;;;;;6.00;2.50;;;;;;100106.32;;;;107823;1297;22690;-40
2022/06/22 08:22:29;;;;;;;5.50;2.60;;;;;;100102.13;;;;107857;1292;22496;-40
2022/06/22 08:24:56;;;;;;;5.60;2.70;;;;;;100098.14;;;;107828;1292;23515;-40
2022/06/22 08:27:24;;;;;;;7.40;2.90;;;;;;100093.71;;;;107855;1286;22547;-39
2022/06/22 08:29:51;;;;;;;4.80;2.80;;;;;;100093.70;;;;107769;1287;22551;-39
2022/06/22 08:32:19;;;;;;;5.30;2.40;;;;;;100100.72;;;;107821;1286;24256;-39
2022/06/22 08:34:48;;;;;;;5.70;2.60;;;;;;100097.06;;;;107834;1286;25153;-39
2022/06/22 08:37:15;;;;;;;6.20;2.50;;;;;;100096.54;;;;107818;1297;24284;-39
2022/06/22 08:39:43;;;;;;;5.80;2.60;;;;;;100093.86;;;;107829;1295;22493;-39
2022/06/22 08:42:10;;;;;;;7.50;2.70;;;;;;100089.17;;;;107839;1286;23804;-40
2022/06/22 08:44:38;;;;;;;6.40;2.60;;;;;;100092.96;;;;107825;1290;22687;-41
2022/06/22 08:47:05;;;;;;;6.80;2.90;;;;;;100091.04;;;;107777;1279;23271;-40
2022/06/22 08:49:33;;;;;;;6.50;2.80;;;;;;100086.02;;;;107846;1286;24137;-40
2022/06/22 08:52:01;;;;;;;6.60;2.80;;;;;;100086.23;;;;107829;1286;24093;-40
2022/06/22 08:54:28;;;;;;;6.30;2.60;;;;;;100087.50;;;;107827;1286;24012;-41
2022/06/22 08:59:37;;;;;;;6.70;2.60;;;;;;100094.53;;;;103789;1319;567408;-36
2022/06/22 09:02:04;;;;;;;6.40;2.90;;;;;;100094.50;;;;106451;1299;33919;-35
2022/06/22 09:04:32;;;;;;;7.10;3.10;;;;;;100095.92;;;;106383;1299;35023;-37
2022/06/22 09:06:59;;;;;;;6.30;2.90;;;;;;100094.25;;;;106422;1299;34605;-36
2022/06/22 09:09:27;;;;;;;6.70;3.10;;;;;;100096.96;;;;106411;1299;34760;-37
2022/06/22 09:11:54;;;;;;;6.10;2.90;;;;;;100099.00;;;;106420;1299;34482;-38
2022/06/22 09:14:22;;;;;;;8.20;3.30;;;;;;100097.80;;;;106544;1298;185232;-37
2022/06/22 09:16:49;;;;;;;8.30;2.80;;;;;;100096.99;;;;106611;1298;32866;-38
2022/06/22 09:19:17;;;;;;;6.40;2.60;;;;;;100102.00;;;;106623;1298;34483;-38
2022/06/22 09:21:45;;;;;;;5.90;3.00;;;;;;100098.85;;;;106622;1298;34484;-39
2022/06/22 09:24:13;;;;;;;6.10;2.70;;;;;;100092.90;;;;106608;1298;34550;-38
2022/06/22 09:26:40;;;;;;;5.80;2.60;;;;;;100100.47;;;;106456;1298;34693;-36
2022/06/22 09:29:08;;;;;;;5.40;2.30;;;;;;100102.84;;;;106653;1298;34734;-38
2022/06/22 09:31:36;;;;;;;8.30;2.50;;;;;;100099.37;;;;106429;1298;32851;-38
2022/06/22 09:34:03;;;;;;;4.90;2.30;;;;;;100101.32;;;;106451;1298;34917;-40
2022/06/22 09:36:30;;;;;;;4.60;2.50;;;;;;100101.05;;;;107081;1295;34682;-40
2022/06/22 09:38:58;;;;;;;4.30;2.30;;;;;;100111.18;;;;107092;1295;34736;-40
2022/06/22 09:41:25;;;;;;;5.00;2.60;;;;;;100102.89;;;;107107;1295;34593;-40
2022/06/22 09:43:53;;;;;;;4.70;2.20;;;;;;100105.59;;;;107109;1295;34967;-39
2022/06/22 09:46:20;;;;;;;5.40;2.60;;;;;;100099.20;;;;107076;1295;34783;-39
2022/06/22 09:48:48;;;;;;;4.90;2.60;;;;;;100091.02;;;;107085;1295;32836;-38
2022/06/22 09:51:15;;;;;;;5.80;2.80;;;;;;100088.05;;;;106856;1295;34559;-40
2022/06/22 09:53:42;;;;;;;5.70;2.90;;;;;;100093.13;;;;106882;1295;35215;-40
2022/06/22 09:56:25;;;;;;;4.50;2.40;;;;;;100103.23;;;;106842;1295;34646;-40
2022/06/22 09:58:52;;;;;;;4.30;2.20;;;;;;100105.95;;;;107080;1295;34495;-39
2022/06/22 10:01:20;;;;;;;4.30;2.30;;;;;;100103.55;;;;106881;1295;34520;-39
2022/06/22 10:03:47;;;;;;;4.60;2.30;;;;;;100100.54;;;;106859;1295;34929;-40
2022/06/22 10:06:15;;;;;;;4.50;2.30;;;;;;100096.98;;;;107411;1291;35022;-38
2022/06/22 10:08:42;;;;;;;4.60;2.40;;;;;;100104.81;;;;107383;1292;34540;-38
2022/06/22 10:11:09;;;;;;;5.40;2.40;;;;;;100108.88;;;;107392;1290;33997;-38
2022/06/22 10:13:37;;;;;;;5.30;2.50;;;;;;100108.16;;;;107391;1290;35876;-40
2022/06/22 10:16:04;;;;;;;5.00;2.50;;;;;;100098.81;;;;107391;1290;34544;-41
2022/06/22 10:18:31;;;;;;;5.50;2.60;;;;;;100106.83;;;;107372;1290;34652;-40
2022/06/22 10:20:59;;;;;;;4.90;2.60;;;;;;100107.73;;;;107386;1290;34718;-38
2022/06/22 10:23:26;;;;;;;5.10;2.60;;;;;;100106.15;;;;107412;1290;32834;-39
2022/06/22 10:25:54;;;;;;;4.80;2.30;;;;;;100099.28;;;;107393;1290;34682;-41
2022/06/22 10:28:22;;;;;;;4.60;2.40;;;;;;100101.73;;;;107374;1290;34492;-38
2022/06/22 10:30:49;;;;;;;4.20;2.30;;;;;;100101.88;;;;107428;1290;34271;-40
2022/06/22 10:33:17;;;;;;;4.20;2.30;;;;;;100105.53;;;;107391;1290;34831;-41
2022/06/22 10:35:44;;;;;;;5.30;2.60;;;;;;100103.64;;;;107379;1290;34609;-45
2022/06/22 10:38:12;;;;;;;6.00;2.80;;;;;;100107.86;;;;107386;1290;34556;-40
2022/06/22 10:46:10;;;;;;;4.50;2.50;;;;;;100107.27;;;;107399;1290;34448;-41
2022/06/22 10:48:37;;;;;;;6.50;2.80;;;;;;100108.73;;;;107392;1290;35258;-41
2022/06/22 10:51:05;;;;;;;5.30;3.10;;;;;;100113.59;;;;107388;1290;34750;-41
2022/06/22 10:53:32;;;;;;;4.10;2.30;;;;;;100105.09;;;;107389;1290;34689;-41
2022/06/22 10:55:59;;;;;;;5.10;2.70;;;;;;100106.20;;;;107382;1289;34597;-41
2022/06/22 10:58:27;;;;;;;4.50;2.30;;;;;;100100.23;;;;107392;1290;34618;-41
2022/06/22 11:00:54;;;;;;;4.80;2.50;;;;;;100106.05;;;;107523;1287;34711;-41
2022/06/22 11:03:22;;;;;;;4.10;2.40;;;;;;100108.05;;;;107533;1286;34600;-41
2022/06/22 11:05:49;;;;;;;4.80;2.50;;;;;;100102.49;;;;107513;1287;32908;-40
2022/06/22 11:08:16;;;;;;;6.30;2.70;;;;;;100101.92;;;;107522;1287;34733;-41
2022/06/22 11:10:44;;;;;;;4.60;2.60;;;;;;100096.97;;;;107534;1287;34370;-41
2022/06/22 11:13:11;;;;;;;5.20;2.50;;;;;;100089.30;;;;107532;1287;35666;-41
2022/06/22 11:15:38;;;;;;;5.20;2.40;;;;;;100094.52;;;;107558;1287;33741;-41
2022/06/22 11:18:06;;;;;;;5.80;2.50;;;;;;100089.14;;;;107525;1287;34681;-41
2022/06/22 11:20:34;;;;;;;4.60;2.30;;;;;;100085.36;;;;107532;1287;33674;-41
2022/06/22 11:23:03;;;;;;;4.00;2.10;;;;;;100087.45;;;;107531;1287;32854;-41
2022/06/22 11:31:01;;;;;;;4.20;2.30;;;;;;100091.08;;;;107549;1287;34563;-41
2022/06/22 11:33:29;;;;;;;5.00;2.50;;;;;;100094.83;;;;107552;1287;33719;-39
2022/06/22 11:35:56;;;;;;;4.70;2.50;;;;;;100082.05;;;;107567;1287;34738;-40
2022/06/22 11:38:24;;;;;;;4.30;2.20;;;;;;100079.98;;;;107513;1287;35010;-42
2022/06/22 11:40:51;;;;;;;5.50;2.40;;;;;;100085.67;;;;107519;1287;34667;-44
2022/06/22 11:43:19;;;;;;;4.10;2.20;;;;;;100081.43;;;;107515;1287;34964;-41
2022/06/22 11:45:54;;;;;;;4.20;2.40;;;;;;100080.48;;;;107520;1287;34469;-42
2022/06/22 11:48:21;;;;;;;5.10;2.30;;;;;;100074.66;;;;107362;1287;34578;-41
2022/06/22 11:50:49;;;;;;;4.20;2.00;;;;;;100075.63;;;;107522;1287;34419;-38
2022/06/22 11:53:16;;;;;;;4.40;2.30;;;;;;100072.75;;;;107497;1286;34467;-48
2022/06/22 11:55:44;;;;;;;3.60;2.00;;;;;;100077.95;;;;107539;1287;32980;-39
2022/06/22 11:58:11;;;;;;;4.60;2.20;;;;;;100082.04;;;;107505;1287;34537;-42
2022/06/22 12:00:39;;;;;;;4.80;2.30;;;;;;100079.33;;;;107539;1285;32863;-41
2022/06/22 12:03:06;;;;;;;4.60;2.20;;;;;;100079.30;;;;107517;1287;34175;-40
2022/06/22 12:05:34;;;;;;;5.40;2.70;;;;;;100077.84;;;;107508;1287;33364;-48
2022/06/22 12:08:01;;;;;;;4.00;2.30;;;;;;100084.17;;;;107510;1287;32899;-39
2022/06/22 12:10:29;;;;;;;4.30;2.10;;;;;;100089.91;;;;107497;1287;32937;-41
2022/06/22 12:12:58;;;;;;;4.50;2.00;;;;;;100083.72;;;;107542;1285;34597;-43
2022/06/22 12:15:26;;;;;;;4.40;2.20;;;;;;100084.11;;;;107495;1286;35001;-44
2022/06/22 12:17:53;;;;;;;4.00;2.10;;;;;;100083.27;;;;107516;1287;34806;-40
2022/06/22 12:20:21;;;;;;;3.90;2.20;;;;;;100090.78;;;;107481;1288;34665;-39
2022/06/22 12:22:48;;;;;;;4.50;2.40;;;;;;100085.23;;;;107509;1287;34995;-40
2022/06/22 12:25:16;;;;;;;3.80;2.10;;;;;;100082.73;;;;107512;1287;35762;-42
2022/06/22 12:27:43;;;;;;;3.90;2.20;;;;;;100084.34;;;;107490;1287;34577;-43
2022/06/22 12:30:10;;;;;;;4.60;2.10;;;;;;100084.50;;;;107515;1286;34899;-43
2022/06/22 12:32:38;;;;;;;4.30;2.10;;;;;;100088.75;;;;107510;1287;34797;-37
2022/06/22 12:35:05;;;;;;;4.60;2.20;;;;;;100090.88;;;;107530;1287;34725;-41
2022/06/22 12:37:33;;;;;;;4.00;1.90;;;;;;100083.45;;;;107523;1286;34425;-40
2022/06/22 12:40:00;;;;;;;6.30;2.40;;;;;;100077.35;;;;107520;1286;34985;-40
2022/06/22 12:42:28;;;;;;;3.80;2.00;;;;;;100079.92;;;;107489;1289;34620;-40
2022/06/22 12:44:55;;;;;;;4.10;2.20;;;;;;100084.23;;;;107533;1287;35060;-40
2022/06/22 12:47:23;;;;;;;4.60;2.30;;;;;;100082.67;;;;107485;1287;34105;-40
2022/06/22 12:49:50;;;;;;;4.60;2.30;;;;;;100087.32;;;;107517;1287;34194;-40
2022/06/22 12:52:19;;;;;;;4.00;2.00;;;;;;100076.17;;;;107509;1287;34527;-40
2022/06/22 12:54:47;;;;;;;4.30;2.30;;;;;;100075.74;;;;107527;1286;34582;-40
2022/06/22 12:57:14;;;;;;;5.40;2.40;;;;;;100074.17;;;;107423;1285;34592;-38
2022/06/22 12:59:41;;;;;;;3.40;1.90;;;;;;100067.25;;;;107393;1285;34493;-38
2022/06/22 13:02:09;;;;;;;4.00;2.00;;;;;;100064.27;;;;107366;1287;35654;-38
2022/06/22 13:04:37;;;;;;;3.70;2.00;;;;;;100061.77;;;;107424;1285;34555;-39
2022/06/22 13:07:04;;;;;;;3.60;1.90;;;;;;100066.50;;;;107409;1285;35105;-38
2022/06/22 13:09:32;;;;;;;4.00;2.40;;;;;;100066.39;;;;107502;1286;34463;-40
2022/06/22 13:11:59;;;;;;;5.20;2.10;;;;;;100057.85;;;;107564;1285;34150;-41